createdAt,value
2018-06-03T00:00:51.427Z,6.37
2018-06-03T00:03:26.688Z,6.77
2018-06-03T00:06:01.913Z,6.20
2018-06-03T00:08:37.921Z,6.30
2018-06-03T00:11:13.088Z,5.67
2018-06-03T00:13:48.371Z,5.27
2018-06-03T00:16:23.684Z,5.23
2018-06-03T00:18:58.967Z,4.53
2018-06-03T00:21:44.047Z,4.77
2018-06-03T00:24:19.995Z,4.60
2018-06-03T00:26:55.936Z,9.60
2018-06-03T00:29:31.926Z,7.37
2018-06-03T00:32:07.852Z,7.90
2018-06-03T00:34:43.071Z,6.23
2018-06-03T00:37:18.319Z,7.30
2018-06-03T00:39:53.589Z,17.57
2018-06-03T00:42:29.539Z,19.37
2018-06-03T00:45:04.694Z,25.07
2018-06-03T00:47:39.778Z,29.67
2018-06-03T00:50:15.132Z,30.50
2018-06-03T00:52:51.099Z,19.20
2018-06-03T00:55:27.902Z,22.70
2018-06-03T00:58:03.713Z,18.40
2018-06-03T01:00:38.847Z,11.53
2018-06-03T01:03:14.086Z,10.90
2018-06-03T01:05:50.149Z,11.67
2018-06-03T01:08:25.403Z,11.13
2018-06-03T01:11:39.956Z,14.10
2018-06-03T01:14:16.736Z,18.53
2018-06-03T01:16:53.145Z,11.30
2018-06-03T01:19:29.524Z,41.77
2018-06-03T01:22:06.087Z,43.73
2018-06-03T01:24:42.930Z,38.43
2018-06-03T01:27:19.239Z,34.33
2018-06-03T01:29:55.759Z,26.43
2018-06-03T01:32:32.228Z,21.83
2018-06-03T01:35:08.690Z,10.83
2018-06-03T01:37:45.139Z,7.00
2018-06-03T01:40:21.635Z,5.97
2018-06-03T01:42:58.107Z,5.77
2018-06-03T01:45:34.565Z,6.20
2018-06-03T01:48:10.862Z,6.20
2018-06-03T01:50:47.311Z,6.10
2018-06-03T01:53:23.762Z,6.03
2018-06-03T01:56:00.248Z,5.60
2018-06-03T01:58:36.533Z,5.93
2018-06-03T02:01:13.531Z,6.27
2018-06-03T02:03:50.291Z,6.50
2018-06-03T02:06:27.742Z,6.40
2018-06-03T02:09:04.545Z,6.47
2018-06-03T02:11:41.553Z,6.97
2018-06-03T02:14:17.935Z,6.50
2018-06-03T02:16:55.352Z,5.73
2018-06-03T02:19:31.930Z,6.10
2018-06-03T02:22:08.236Z,6.40
2018-06-03T02:24:44.556Z,5.60
2018-06-03T02:27:21.497Z,6.00
2018-06-03T02:29:58.357Z,5.47
2018-06-03T02:32:34.655Z,4.73
2018-06-03T02:35:11.108Z,5.30
2018-06-03T02:37:47.642Z,5.30
2018-06-03T02:40:24.111Z,5.60
2018-06-03T02:43:00.571Z,5.67
2018-06-03T02:45:37.170Z,5.10
2018-06-03T02:48:13.648Z,5.10
2018-06-03T02:50:50.551Z,4.90
2018-06-03T02:53:26.901Z,5.50
2018-06-03T02:56:03.424Z,5.80
2018-06-03T02:58:39.940Z,5.47
2018-06-03T03:01:16.437Z,5.87
2018-06-03T03:03:52.704Z,6.20
2018-06-03T03:06:29.008Z,5.87
2018-06-03T03:09:07.008Z,6.17
2018-06-03T03:11:43.410Z,6.70
2018-06-03T03:14:19.954Z,5.97
2018-06-03T03:16:56.359Z,5.77
2018-06-03T03:19:32.844Z,6.17
2018-06-03T03:22:09.627Z,6.70
2018-06-03T03:24:46.079Z,5.53
2018-06-03T03:27:22.531Z,5.90
2018-06-03T03:29:58.986Z,6.33
2018-06-03T03:32:35.517Z,6.07
2018-06-03T03:35:11.879Z,6.10
2018-06-03T03:37:48.222Z,6.30
2018-06-03T03:40:24.668Z,6.87
2018-06-03T03:43:01.194Z,7.27
2018-06-03T03:45:37.717Z,6.97
2018-06-03T03:48:14.254Z,7.43
2018-06-03T03:50:50.975Z,6.33
2018-06-03T03:53:27.542Z,6.97
2018-06-03T03:56:05.003Z,6.20
2018-06-03T03:58:41.274Z,7.10
2018-06-03T04:01:17.726Z,7.00
2018-06-03T04:03:54.215Z,5.90
2018-06-03T04:06:30.693Z,7.33
2018-06-03T04:09:07.733Z,7.30
2018-06-03T04:11:43.987Z,6.80
2018-06-03T04:14:20.475Z,8.10
2018-06-03T04:16:56.956Z,6.57
2018-06-03T04:19:33.323Z,7.13
2018-06-03T04:22:09.767Z,7.80
2018-06-03T04:24:46.257Z,7.13
2018-06-03T04:27:22.549Z,7.43
2018-06-03T04:29:58.835Z,7.97
2018-06-03T04:32:35.352Z,8.10
2018-06-03T04:35:11.824Z,7.20
2018-06-03T04:37:48.292Z,7.17
2018-06-03T04:40:24.779Z,7.73
2018-06-03T04:43:00.822Z,8.13
2018-06-03T04:45:37.175Z,7.13
2018-06-03T04:48:13.564Z,8.13
2018-06-03T04:50:50.043Z,7.33
2018-06-03T04:53:26.623Z,6.40
2018-06-03T04:56:03.151Z,6.80
2018-06-03T04:58:39.647Z,7.53
2018-06-03T05:01:15.935Z,6.07
2018-06-03T05:03:52.500Z,6.27
2018-06-03T05:06:29.014Z,6.80
2018-06-03T05:09:07.310Z,7.30
2018-06-03T05:11:43.542Z,7.23
2018-06-03T05:14:19.974Z,6.40
2018-06-03T05:16:56.415Z,6.63
2018-06-03T05:19:32.882Z,5.90
2018-06-03T05:22:09.517Z,6.33
2018-06-03T05:24:46.655Z,6.17
2018-06-03T05:27:23.067Z,5.03
2018-06-03T05:30:00.283Z,5.33
2018-06-03T05:32:36.663Z,4.93
2018-06-03T05:35:13.130Z,4.90
2018-06-03T05:37:49.616Z,5.27
2018-06-03T05:40:26.059Z,5.37
2018-06-03T05:43:03.304Z,4.97
2018-06-03T05:45:40.343Z,5.00
2018-06-03T05:48:16.742Z,4.50
2018-06-03T05:50:53.211Z,4.37
2018-06-03T05:53:29.668Z,4.30
2018-06-03T05:56:06.113Z,4.43
2018-06-03T05:58:42.476Z,4.10
2018-06-03T06:01:19.398Z,4.40
2018-06-03T06:03:55.820Z,3.93
2018-06-03T06:06:32.285Z,4.30
2018-06-03T06:09:08.826Z,3.80
2018-06-03T06:11:45.315Z,4.27
2018-06-03T06:14:21.845Z,3.90
2018-06-03T06:16:58.722Z,4.20
2018-06-03T06:19:35.027Z,4.03
2018-06-03T06:22:11.530Z,3.80
2018-06-03T06:24:48.109Z,4.10
2018-06-03T06:27:24.532Z,4.00
2018-06-03T06:30:00.881Z,3.87
2018-06-03T06:32:40.603Z,4.13
2018-06-03T06:35:16.897Z,4.07
2018-06-03T06:37:53.586Z,3.87
2018-06-03T06:40:30.615Z,4.00
2018-06-03T06:43:07.089Z,3.50
2018-06-03T06:45:43.448Z,3.47
2018-06-03T06:48:20.104Z,2.87
2018-06-03T06:50:57.353Z,2.97
2018-06-03T06:53:33.810Z,2.33
2018-06-03T06:56:10.176Z,2.80
2018-06-03T06:58:46.608Z,2.53
2018-06-03T07:01:23.856Z,2.50
2018-06-03T07:04:00.416Z,2.33
2018-06-03T07:06:37.373Z,2.80
2018-06-03T07:09:13.858Z,2.20
2018-06-03T07:11:51.503Z,2.10
2018-06-03T07:14:28.445Z,2.90
2018-06-03T07:17:04.806Z,2.53
2018-06-03T07:19:41.287Z,2.00
2018-06-03T07:22:17.699Z,2.30
2018-06-03T07:24:54.685Z,2.20
2018-06-03T07:27:30.998Z,2.27
2018-06-03T07:30:07.342Z,2.40
2018-06-03T07:32:43.728Z,2.20
2018-06-03T07:35:20.184Z,2.00
2018-06-03T07:37:56.645Z,2.60
2018-06-03T07:40:33.085Z,3.00
2018-06-03T07:43:11.229Z,3.10
2018-06-03T07:45:48.492Z,3.00
2018-06-03T07:48:27.035Z,3.07
2018-06-03T07:51:03.391Z,2.87
2018-06-03T07:53:39.855Z,2.50
2018-06-03T07:56:16.292Z,2.40
2018-06-03T07:58:52.747Z,2.10
2018-06-03T08:01:29.354Z,2.57
2018-06-03T08:04:06.431Z,2.60
2018-06-03T08:06:43.929Z,2.30
2018-06-03T08:09:20.204Z,2.70
2018-06-03T08:11:56.647Z,3.00
2018-06-03T08:14:32.995Z,3.20
2018-06-03T08:17:09.370Z,2.30
2018-06-03T08:19:45.867Z,2.17
2018-06-03T08:22:22.208Z,2.20
2018-06-03T08:25:01.128Z,2.30
2018-06-03T08:27:38.367Z,2.00
2018-06-03T08:30:14.828Z,2.40
2018-06-03T08:32:51.558Z,2.00
2018-06-03T08:35:27.943Z,2.03
2018-06-03T08:38:04.403Z,2.20
2018-06-03T08:40:41.668Z,2.17
2018-06-03T08:43:18.611Z,2.13
2018-06-03T08:45:56.806Z,1.90
2018-06-03T08:48:33.090Z,1.80
2018-06-03T08:51:09.410Z,2.13
2018-06-03T08:53:45.879Z,1.70
2018-06-03T08:56:22.398Z,1.87
2018-06-03T08:58:58.896Z,1.80
2018-06-03T09:01:35.368Z,1.70
2018-06-03T09:04:11.841Z,1.50
2018-06-03T09:06:49.382Z,1.67
2018-06-03T09:09:25.619Z,2.03
2018-06-03T09:12:03.329Z,1.67
2018-06-03T09:14:39.730Z,1.73
2018-06-03T09:17:16.571Z,1.70
2018-06-03T09:19:53.755Z,1.67
2018-06-03T09:22:30.252Z,1.83
2018-06-03T09:25:06.849Z,1.70
2018-06-03T09:27:43.963Z,2.27
2018-06-03T09:30:20.685Z,1.47
2018-06-03T09:32:57.193Z,1.73
2018-06-03T09:35:33.647Z,1.60
2018-06-03T09:38:10.108Z,2.17
2018-06-03T09:40:46.570Z,1.63
2018-06-03T09:43:23.032Z,1.47
2018-06-03T09:45:59.500Z,1.90
2018-06-03T09:48:36.878Z,1.67
2018-06-03T09:51:13.433Z,2.20
2018-06-03T09:53:49.842Z,1.90
2018-06-03T09:56:26.264Z,1.80
2018-06-03T09:59:02.708Z,1.90
2018-06-03T10:01:39.199Z,1.67
2018-06-03T10:04:16.568Z,1.80
2018-06-03T10:06:53.125Z,1.90
2018-06-03T10:09:30.234Z,1.83
2018-06-03T10:12:08.712Z,1.60
2018-06-03T10:14:45.835Z,1.53
2018-06-03T10:17:22.228Z,1.73
2018-06-03T10:19:59.015Z,1.70
2018-06-03T10:22:35.515Z,1.90
2018-06-03T10:25:13.171Z,1.80
2018-06-03T10:27:50.051Z,1.60
2018-06-03T10:30:26.343Z,1.90
2018-06-03T10:33:03.379Z,1.97
2018-06-03T10:35:39.901Z,1.47
2018-06-03T10:38:16.431Z,1.70
2018-06-03T10:40:52.933Z,1.77
2018-06-03T10:43:29.047Z,1.40
2018-06-03T10:46:06.211Z,1.60
2018-06-03T10:48:44.497Z,2.03
2018-06-03T10:51:22.263Z,1.70
2018-06-03T10:53:58.747Z,1.80
2018-06-03T10:56:35.101Z,1.83
2018-06-03T10:59:12.511Z,1.70
2018-06-03T11:01:49.645Z,1.83
2018-06-03T11:04:26.131Z,1.83
2018-06-03T11:07:02.990Z,1.93
2018-06-03T11:09:39.472Z,1.60
2018-06-03T11:12:16.439Z,1.67
2018-06-03T11:14:52.895Z,1.80
2018-06-03T11:17:29.453Z,2.40
2018-06-03T11:20:06.315Z,1.90
2018-06-03T11:22:42.827Z,1.87
2018-06-03T11:25:19.339Z,2.17
2018-06-03T11:27:55.792Z,1.67
2018-06-03T11:30:32.331Z,1.80
2018-06-03T11:33:08.784Z,1.83
2018-06-03T11:35:45.274Z,1.67
2018-06-03T11:38:21.722Z,1.90
2018-06-03T11:40:58.243Z,1.67
2018-06-03T11:43:36.720Z,1.57
2018-06-03T11:46:13.051Z,1.50
2018-06-03T11:48:49.621Z,1.30
2018-06-03T11:51:26.053Z,1.83
2018-06-03T11:54:02.398Z,1.43
2018-06-03T11:56:55.704Z,1.50
2018-06-03T11:59:42.413Z,1.63
2018-06-03T12:02:20.402Z,2.43
2018-06-03T12:04:57.443Z,1.50
2018-06-03T12:07:34.232Z,2.10
2018-06-03T12:10:10.684Z,1.77
2018-06-03T12:12:47.103Z,1.30
2018-06-03T12:15:23.655Z,1.80
2018-06-03T12:17:59.981Z,1.83
2018-06-03T12:20:36.402Z,1.70
2018-06-03T12:23:12.906Z,1.93
2018-06-03T12:25:49.455Z,1.70
2018-06-03T12:28:25.832Z,1.53
2018-06-03T12:31:01.886Z,2.40
2018-06-03T12:33:38.110Z,1.67
2018-06-03T12:36:14.606Z,1.83
2018-06-03T12:38:51.087Z,1.70
2018-06-03T12:41:27.569Z,1.57
2018-06-03T12:44:03.924Z,1.80
2018-06-03T12:46:41.187Z,1.50
2018-06-03T12:49:18.324Z,2.10
2018-06-03T12:51:54.817Z,1.90
2018-06-03T12:54:31.422Z,1.50
2018-06-03T12:57:07.807Z,1.63
2018-06-03T12:59:44.303Z,1.80
2018-06-03T13:02:21.303Z,2.07
2018-06-03T13:04:57.859Z,1.30
2018-06-03T13:07:36.597Z,1.57
2018-06-03T13:10:12.999Z,1.13
2018-06-03T13:12:49.333Z,1.67
2018-06-03T13:15:25.861Z,1.47
2018-06-03T13:18:02.664Z,1.50
2018-06-03T13:20:39.106Z,1.90
2018-06-03T13:23:15.502Z,1.50
2018-06-03T13:25:53.816Z,0.90
2018-06-03T13:28:30.394Z,1.60
2018-06-03T13:31:06.927Z,1.23
2018-06-03T13:33:43.502Z,1.40
2018-06-03T13:36:20.022Z,1.30
2018-06-03T13:38:56.555Z,1.30
2018-06-03T13:41:33.062Z,1.53
2018-06-03T13:44:09.520Z,1.40
2018-06-03T13:46:46.081Z,1.67
2018-06-03T13:49:22.468Z,1.63
2018-06-03T13:51:58.964Z,1.47
2018-06-03T13:54:35.418Z,1.40
2018-06-03T13:57:11.888Z,1.50
2018-06-03T13:59:48.922Z,1.30
2018-06-03T14:02:25.222Z,1.50
2018-06-03T14:05:01.321Z,1.97
2018-06-03T14:07:37.595Z,1.63
2018-06-03T14:10:14.098Z,1.63
2018-06-03T14:12:56.621Z,2.00
2018-06-03T14:15:32.889Z,1.77
2018-06-03T14:18:09.338Z,1.20
2018-06-03T14:20:45.800Z,1.73
2018-06-03T14:23:22.235Z,1.60
2018-06-03T14:25:58.752Z,1.77
2018-06-03T14:28:35.100Z,1.80
2018-06-03T14:31:11.591Z,1.50
2018-06-03T14:33:48.017Z,1.47
2018-06-03T14:36:24.495Z,1.67
2018-06-03T14:39:01.032Z,1.67
2018-06-03T14:41:37.523Z,1.70
2018-06-03T14:44:13.982Z,1.77
2018-06-03T14:46:50.612Z,1.60
2018-06-03T14:49:27.551Z,1.67
2018-06-03T14:52:03.947Z,1.50
2018-06-03T14:54:40.405Z,1.40
2018-06-03T14:57:16.854Z,1.70
2018-06-03T14:59:53.319Z,1.53
2018-06-03T15:02:32.020Z,2.10
2018-06-03T15:05:09.499Z,1.40
2018-06-03T15:07:46.944Z,1.73
2018-06-03T15:10:23.072Z,2.00
2018-06-03T15:12:59.539Z,1.77
2018-06-03T15:15:36.293Z,1.30
2018-06-03T15:18:13.250Z,1.33
2018-06-03T15:20:50.793Z,1.67
2018-06-03T15:23:27.102Z,1.93
2018-06-03T15:26:03.567Z,1.77
2018-06-03T15:28:40.810Z,1.90
2018-06-03T15:31:17.275Z,1.77
2018-06-03T15:33:53.618Z,1.80
2018-06-03T15:36:30.257Z,1.20
2018-06-03T15:39:09.249Z,1.33
2018-06-03T15:41:45.638Z,1.53
2018-06-03T15:44:22.020Z,1.50
2018-06-03T15:46:58.430Z,2.00
2018-06-03T15:49:34.922Z,2.97
2018-06-03T15:52:11.446Z,2.17
2018-06-03T15:54:48.115Z,1.80
2018-06-03T15:57:24.604Z,3.00
2018-06-03T16:00:01.071Z,1.80
2018-06-03T16:02:37.654Z,1.93
2018-06-03T16:05:14.060Z,1.40
2018-06-03T16:07:50.726Z,1.73
2018-06-03T16:10:27.116Z,3.30
2018-06-03T16:13:03.446Z,2.00
2018-06-03T16:15:39.885Z,1.87
2018-06-03T16:18:16.548Z,1.80
2018-06-03T16:20:52.983Z,1.47
2018-06-03T16:23:29.372Z,1.40
2018-06-03T16:26:05.689Z,2.60
2018-06-03T16:28:42.140Z,1.73
2018-06-03T16:31:19.816Z,1.70
2018-06-03T16:33:56.765Z,1.40
2018-06-03T16:36:32.999Z,1.63
2018-06-03T16:39:09.537Z,1.30
2018-06-03T16:41:46.159Z,2.20
2018-06-03T16:44:22.926Z,2.23
2018-06-03T16:46:59.368Z,9.07
2018-06-03T16:49:35.944Z,3.20
2018-06-03T16:52:12.684Z,2.70
2018-06-03T16:54:49.412Z,2.20
2018-06-03T16:57:25.866Z,2.50
2018-06-03T17:00:06.231Z,2.90
2018-06-03T17:02:42.733Z,2.10
2018-06-03T17:05:19.168Z,7.07
2018-06-03T17:07:55.752Z,4.10
2018-06-03T17:10:32.714Z,4.60
2018-06-03T17:13:09.115Z,2.87
2018-06-03T17:15:45.751Z,2.80
2018-06-03T17:18:22.963Z,1.90
2018-06-03T17:21:07.401Z,3.30
2018-06-03T17:23:43.908Z,1.60
2018-06-03T17:26:21.185Z,1.70
2018-06-03T17:28:57.473Z,1.53
2018-06-03T17:31:33.755Z,1.37
2018-06-03T17:34:10.128Z,1.50
2018-06-03T17:36:46.815Z,1.57
2018-06-03T17:39:23.221Z,1.67
2018-06-03T17:41:59.811Z,1.30
2018-06-03T17:44:36.327Z,1.40
2018-06-03T17:47:13.317Z,1.80
2018-06-03T17:49:49.964Z,3.03
2018-06-03T17:52:26.259Z,13.00
2018-06-03T17:55:02.747Z,1.60
2018-06-03T17:57:41.238Z,1.90
2018-06-03T18:00:18.742Z,1.67
2018-06-03T18:02:56.612Z,1.43
2018-06-03T18:05:33.020Z,1.67
2018-06-03T18:08:10.495Z,1.43
2018-06-03T18:10:47.030Z,1.20
2018-06-03T18:13:24.493Z,1.30
2018-06-03T18:16:00.995Z,7.03
2018-06-03T18:18:37.504Z,6.60
2018-06-03T18:21:14.081Z,2.17
2018-06-03T18:23:50.464Z,2.37
2018-06-03T18:26:26.847Z,1.53
2018-06-03T18:29:04.169Z,1.63
2018-06-03T18:31:40.644Z,1.40
2018-06-03T18:34:17.665Z,1.60
2018-06-03T18:36:53.996Z,1.50
2018-06-03T18:39:30.366Z,1.77
2018-06-03T18:42:06.731Z,1.83
2018-06-03T18:44:43.787Z,1.80
2018-06-03T18:47:23.070Z,2.00
2018-06-03T18:50:00.113Z,1.97
2018-06-03T18:52:36.476Z,1.60
2018-06-03T18:55:13.151Z,1.57
2018-06-03T18:57:49.772Z,1.73
2018-06-03T19:00:26.530Z,1.80
2018-06-03T19:03:03.073Z,1.73
2018-06-03T19:05:39.454Z,1.73
2018-06-03T19:08:16.227Z,3.37
2018-06-03T19:10:53.797Z,1.93
2018-06-03T19:13:30.221Z,1.83
2018-06-03T19:16:06.716Z,1.80
2018-06-03T19:18:43.862Z,1.77
2018-06-03T19:21:21.222Z,1.90
2018-06-03T19:24:00.536Z,2.40
2018-06-03T19:26:36.988Z,2.00
2018-06-03T19:29:13.974Z,2.17
2018-06-03T19:31:50.385Z,1.63
2018-06-03T19:34:27.900Z,1.70
2018-06-03T19:37:05.085Z,2.30
2018-06-03T19:39:43.519Z,2.00
2018-06-03T19:42:19.922Z,1.93
2018-06-03T19:44:56.524Z,2.27
2018-06-03T19:47:33.461Z,2.00
2018-06-03T19:50:11.296Z,2.63
2018-06-03T19:52:47.758Z,2.33
2018-06-03T19:55:24.568Z,3.23
2018-06-03T19:58:01.111Z,2.50
2018-06-03T20:00:37.561Z,2.50
2018-06-03T20:03:14.138Z,2.73
2018-06-03T20:05:50.633Z,2.73
2018-06-03T20:08:27.453Z,2.83
2018-06-03T20:11:04.057Z,3.00
2018-06-03T20:13:40.575Z,2.90
2018-06-03T20:16:17.223Z,4.30
2018-06-03T20:18:54.015Z,3.97
2018-06-03T20:21:31.441Z,3.83
2018-06-03T20:24:10.264Z,3.83
2018-06-03T20:26:46.801Z,4.93
2018-06-03T20:29:23.533Z,3.70
2018-06-03T20:32:00.180Z,3.70
2018-06-03T20:34:37.902Z,3.90
2018-06-03T20:37:14.912Z,4.40
2018-06-03T20:39:51.495Z,4.70
2018-06-03T20:42:28.262Z,4.53
2018-06-03T20:45:05.163Z,6.10
2018-06-03T20:47:42.328Z,5.67
2018-06-03T20:50:19.099Z,5.90
2018-06-03T20:52:55.632Z,5.80
2018-06-03T20:55:31.937Z,6.40
2018-06-03T20:58:09.017Z,6.53
2018-06-03T21:00:46.152Z,6.10
2018-06-03T21:03:22.718Z,6.50
2018-06-03T21:05:59.037Z,7.00
2018-06-03T21:08:36.084Z,6.90
2018-06-03T21:11:12.424Z,6.40
2018-06-03T21:13:48.872Z,6.63
2018-06-03T21:16:25.423Z,7.17
2018-06-03T21:19:03.011Z,7.10
2018-06-03T21:21:39.776Z,6.80
2018-06-03T21:24:18.630Z,6.80
2018-06-03T21:26:55.695Z,7.30
2018-06-03T21:29:33.392Z,7.33
2018-06-03T21:32:09.867Z,6.27
2018-06-03T21:34:47.051Z,6.47
2018-06-03T21:37:23.443Z,7.03
2018-06-03T21:39:59.897Z,8.20
2018-06-03T21:42:36.375Z,6.47
2018-06-03T21:45:13.123Z,7.30
2018-06-03T21:47:49.543Z,8.10
2018-06-03T21:50:25.804Z,7.70
2018-06-03T21:53:02.766Z,8.83
2018-06-03T21:55:40.192Z,7.63
2018-06-03T21:58:16.494Z,8.10
2018-06-03T22:00:52.919Z,7.83
2018-06-03T22:03:29.386Z,9.20
2018-06-03T22:06:06.575Z,8.33
2018-06-03T22:08:43.388Z,7.30
2018-06-03T22:11:19.872Z,7.87
2018-06-03T22:13:56.368Z,8.63
2018-06-03T22:16:32.980Z,7.63
2018-06-03T22:19:10.049Z,7.77
2018-06-03T22:21:46.625Z,9.10
2018-06-03T22:24:23.616Z,9.80
2018-06-03T22:26:59.941Z,8.67
2018-06-03T22:29:37.680Z,7.43
2018-06-03T22:32:14.451Z,9.70
2018-06-03T22:34:50.892Z,9.13
2018-06-03T22:37:27.299Z,8.73
2018-06-03T22:40:04.359Z,8.30
2018-06-03T22:42:40.874Z,7.83
2018-06-03T22:45:17.308Z,9.53
2018-06-03T22:47:53.798Z,8.70
2018-06-03T22:50:30.694Z,8.97
2018-06-03T22:53:08.430Z,8.20
2018-06-03T22:55:45.035Z,9.50
2018-06-03T22:58:21.519Z,8.70
2018-06-03T23:00:57.935Z,8.70
2018-06-03T23:03:35.195Z,9.40
2018-06-03T23:06:11.690Z,9.77
2018-06-03T23:08:48.130Z,9.93
2018-06-03T23:11:24.539Z,8.80
2018-06-03T23:14:01.517Z,9.70
2018-06-03T23:16:38.129Z,8.87
2018-06-03T23:19:14.484Z,8.73
2018-06-03T23:21:50.988Z,8.43
2018-06-03T23:24:28.357Z,9.60
2018-06-03T23:27:05.176Z,8.27
2018-06-03T23:29:45.715Z,9.23
2018-06-03T23:32:21.891Z,8.77
2018-06-03T23:34:58.429Z,8.70
2018-06-03T23:37:34.942Z,9.83
2018-06-03T23:40:11.426Z,8.70
2018-06-03T23:42:47.913Z,9.87
2018-06-03T23:45:24.336Z,8.43
2018-06-03T23:47:59.877Z,8.13
2018-06-03T23:50:37.380Z,8.77
2018-06-03T23:53:14.673Z,9.33
2018-06-03T23:55:50.967Z,10.47
2018-06-03T23:58:27.427Z,9.77
